sensor_id;sensor_type;location;lat;lon;timestamp;P1;durP1;ratioP1;P2;durP2;ratioP2
261;SDS011;114;48.260;10.988;2023-06-04T00:00:12;11.03;;;6.43;;
261;SDS011;114;48.260;10.988;2023-06-04T00:02:38;7.13;;;4.80;;
261;SDS011;114;48.260;10.988;2023-06-04T00:05:04;4.30;;;4.00;;
261;SDS011;114;48.260;10.988;2023-06-04T00:07:30;5.17;;;3.97;;
261;SDS011;114;48.260;10.988;2023-06-04T00:09:56;3.70;;;3.50;;
261;SDS011;114;48.260;10.988;2023-06-04T00:12:22;6.27;;;4.40;;
261;SDS011;114;48.260;10.988;2023-06-04T00:14:47;7.13;;;4.10;;
261;SDS011;114;48.260;10.988;2023-06-04T00:17:13;5.43;;;3.83;;
261;SDS011;114;48.260;10.988;2023-06-04T00:19:39;5.70;;;4.47;;
261;SDS011;114;48.260;10.988;2023-06-04T00:22:08;10.73;;;3.70;;
261;SDS011;114;48.260;10.988;2023-06-04T00:24:34;7.83;;;4.00;;
261;SDS011;114;48.260;10.988;2023-06-04T00:27:02;6.80;;;4.03;;
261;SDS011;114;48.260;10.988;2023-06-04T00:29:28;11.73;;;4.60;;
261;SDS011;114;48.260;10.988;2023-06-04T00:31:53;8.27;;;3.80;;
261;SDS011;114;48.260;10.988;2023-06-04T00:34:19;6.80;;;4.30;;
261;SDS011;114;48.260;10.988;2023-06-04T00:36:45;4.60;;;4.10;;
261;SDS011;114;48.260;10.988;2023-06-04T00:39:11;4.60;;;3.87;;
261;SDS011;114;48.260;10.988;2023-06-04T00:41:36;4.37;;;3.97;;
261;SDS011;114;48.260;10.988;2023-06-04T00:44:02;7.90;;;3.80;;
261;SDS011;114;48.260;10.988;2023-06-04T00:46:31;5.93;;;3.50;;
261;SDS011;114;48.260;10.988;2023-06-04T00:48:57;6.13;;;3.67;;
261;SDS011;114;48.260;10.988;2023-06-04T00:51:23;4.90;;;3.97;;
261;SDS011;114;48.260;10.988;2023-06-04T00:53:50;5.33;;;3.60;;
261;SDS011;114;48.260;10.988;2023-06-04T00:56:16;5.50;;;3.80;;
261;SDS011;114;48.260;10.988;2023-06-04T00:58:42;9.20;;;4.00;;
261;SDS011;114;48.260;10.988;2023-06-04T01:01:20;6.20;;;3.90;;
261;SDS011;114;48.260;10.988;2023-06-04T01:03:49;4.80;;;4.30;;
261;SDS011;114;48.260;10.988;2023-06-04T01:06:37;3.83;;;3.47;;
261;SDS011;114;48.260;10.988;2023-06-04T01:09:04;8.83;;;3.63;;
261;SDS011;114;48.260;10.988;2023-06-04T01:11:40;6.70;;;3.60;;
261;SDS011;114;48.260;10.988;2023-06-04T01:14:07;6.37;;;4.63;;
261;SDS011;114;48.260;10.988;2023-06-04T01:22:32;9.37;;;4.97;;
261;SDS011;114;48.260;10.988;2023-06-04T01:25:05;6.67;;;3.97;;
261;SDS011;114;48.260;10.988;2023-06-04T01:27:44;8.33;;;4.20;;
261;SDS011;114;48.260;10.988;2023-06-04T01:30:14;7.70;;;4.83;;
261;SDS011;114;48.260;10.988;2023-06-04T01:32:41;4.17;;;3.80;;
261;SDS011;114;48.260;10.988;2023-06-04T01:35:10;5.83;;;4.53;;
261;SDS011;114;48.260;10.988;2023-06-04T01:37:37;4.00;;;3.70;;
261;SDS011;114;48.260;10.988;2023-06-04T01:40:03;4.17;;;3.87;;
261;SDS011;114;48.260;10.988;2023-06-04T01:42:30;11.13;;;3.60;;
261;SDS011;114;48.260;10.988;2023-06-04T01:44:56;10.87;;;4.70;;
261;SDS011;114;48.260;10.988;2023-06-04T01:47:22;8.60;;;4.40;;
261;SDS011;114;48.260;10.988;2023-06-04T01:49:47;10.13;;;3.77;;
261;SDS011;114;48.260;10.988;2023-06-04T01:52:13;6.03;;;4.17;;
261;SDS011;114;48.260;10.988;2023-06-04T01:54:39;4.27;;;3.97;;
261;SDS011;114;48.260;10.988;2023-06-04T01:57:06;8.47;;;3.90;;
261;SDS011;114;48.260;10.988;2023-06-04T01:59:31;5.43;;;4.20;;
261;SDS011;114;48.260;10.988;2023-06-04T02:01:58;5.70;;;5.03;;
261;SDS011;114;48.260;10.988;2023-06-04T02:04:24;6.23;;;4.33;;
261;SDS011;114;48.260;10.988;2023-06-04T02:06:50;8.73;;;4.13;;
261;SDS011;114;48.260;10.988;2023-06-04T02:09:16;9.63;;;5.23;;
261;SDS011;114;48.260;10.988;2023-06-04T02:11:42;8.10;;;4.10;;
261;SDS011;114;48.260;10.988;2023-06-04T02:14:07;6.50;;;4.93;;
261;SDS011;114;48.260;10.988;2023-06-04T02:16:33;6.47;;;4.00;;
261;SDS011;114;48.260;10.988;2023-06-04T02:18:59;4.70;;;4.07;;
261;SDS011;114;48.260;10.988;2023-06-04T02:21:24;4.30;;;4.00;;
261;SDS011;114;48.260;10.988;2023-06-04T02:23:50;5.00;;;4.17;;
261;SDS011;114;48.260;10.988;2023-06-04T02:26:16;5.27;;;4.00;;
261;SDS011;114;48.260;10.988;2023-06-04T02:28:41;4.43;;;3.60;;
261;SDS011;114;48.260;10.988;2023-06-04T02:31:07;6.70;;;4.20;;
261;SDS011;114;48.260;10.988;2023-06-04T02:33:33;6.37;;;3.80;;
261;SDS011;114;48.260;10.988;2023-06-04T02:35:59;8.73;;;4.63;;
261;SDS011;114;48.260;10.988;2023-06-04T02:38:25;8.70;;;4.70;;
261;SDS011;114;48.260;10.988;2023-06-04T02:40:51;4.83;;;4.40;;
261;SDS011;114;48.260;10.988;2023-06-04T02:43:16;4.63;;;4.23;;
261;SDS011;114;48.260;10.988;2023-06-04T02:45:42;4.23;;;3.93;;
261;SDS011;114;48.260;10.988;2023-06-04T02:48:08;4.80;;;4.40;;
261;SDS011;114;48.260;10.988;2023-06-04T02:50:34;10.70;;;5.23;;
261;SDS011;114;48.260;10.988;2023-06-04T02:53:00;8.60;;;5.40;;
261;SDS011;114;48.260;10.988;2023-06-04T02:55:25;5.80;;;5.20;;
261;SDS011;114;48.260;10.988;2023-06-04T02:57:51;5.70;;;4.70;;
261;SDS011;114;48.260;10.988;2023-06-04T03:00:17;10.37;;;5.17;;
261;SDS011;114;48.260;10.988;2023-06-04T03:02:44;5.23;;;4.67;;
261;SDS011;114;48.260;10.988;2023-06-04T03:05:13;5.20;;;4.40;;
261;SDS011;114;48.260;10.988;2023-06-04T03:07:40;5.63;;;4.30;;
261;SDS011;114;48.260;10.988;2023-06-04T03:10:11;8.40;;;4.13;;
261;SDS011;114;48.260;10.988;2023-06-04T03:12:38;5.50;;;4.87;;
261;SDS011;114;48.260;10.988;2023-06-04T03:15:04;15.13;;;5.10;;
261;SDS011;114;48.260;10.988;2023-06-04T03:17:30;6.03;;;4.37;;
261;SDS011;114;48.260;10.988;2023-06-04T03:19:57;8.77;;;4.73;;
261;SDS011;114;48.260;10.988;2023-06-04T03:22:23;5.97;;;4.57;;
261;SDS011;114;48.260;10.988;2023-06-04T03:24:49;7.30;;;4.93;;
261;SDS011;114;48.260;10.988;2023-06-04T03:27:15;4.90;;;3.90;;
261;SDS011;114;48.260;10.988;2023-06-04T03:29:40;5.93;;;4.80;;
261;SDS011;114;48.260;10.988;2023-06-04T03:32:06;5.87;;;4.40;;
261;SDS011;114;48.260;10.988;2023-06-04T03:34:33;6.77;;;4.63;;
261;SDS011;114;48.260;10.988;2023-06-04T03:36:58;8.73;;;4.40;;
261;SDS011;114;48.260;10.988;2023-06-04T03:39:25;6.90;;;4.57;;
261;SDS011;114;48.260;10.988;2023-06-04T03:41:51;5.10;;;4.60;;
261;SDS011;114;48.260;10.988;2023-06-04T03:44:16;4.53;;;4.10;;
261;SDS011;114;48.260;10.988;2023-06-04T03:46:43;4.80;;;4.33;;
261;SDS011;114;48.260;10.988;2023-06-04T03:49:10;7.73;;;4.57;;
261;SDS011;114;48.260;10.988;2023-06-04T03:51:36;6.93;;;4.50;;
261;SDS011;114;48.260;10.988;2023-06-04T03:54:03;4.80;;;4.00;;
261;SDS011;114;48.260;10.988;2023-06-04T03:56:29;4.33;;;4.03;;
261;SDS011;114;48.260;10.988;2023-06-04T03:58:55;5.57;;;4.40;;
261;SDS011;114;48.260;10.988;2023-06-04T04:01:21;4.13;;;3.83;;
261;SDS011;114;48.260;10.988;2023-06-04T04:03:48;4.93;;;4.53;;
261;SDS011;114;48.260;10.988;2023-06-04T04:06:16;12.83;;;5.07;;
261;SDS011;114;48.260;10.988;2023-06-04T04:08:43;5.07;;;4.53;;
261;SDS011;114;48.260;10.988;2023-06-04T04:11:09;5.30;;;4.87;;
261;SDS011;114;48.260;10.988;2023-06-04T04:13:39;5.57;;;5.00;;
261;SDS011;114;48.260;10.988;2023-06-04T04:16:05;5.67;;;4.50;;
261;SDS011;114;48.260;10.988;2023-06-04T04:18:34;4.40;;;4.00;;
261;SDS011;114;48.260;10.988;2023-06-04T04:21:01;6.57;;;4.10;;
261;SDS011;114;48.260;10.988;2023-06-04T04:23:28;4.30;;;4.00;;
261;SDS011;114;48.260;10.988;2023-06-04T04:25:55;7.53;;;4.40;;
261;SDS011;114;48.260;10.988;2023-06-04T04:28:24;4.67;;;4.20;;
261;SDS011;114;48.260;10.988;2023-06-04T04:30:54;4.10;;;3.70;;
261;SDS011;114;48.260;10.988;2023-06-04T04:33:21;6.20;;;4.60;;
261;SDS011;114;48.260;10.988;2023-06-04T04:35:51;4.00;;;3.70;;
261;SDS011;114;48.260;10.988;2023-06-04T04:38:18;4.37;;;3.67;;
261;SDS011;114;48.260;10.988;2023-06-04T04:40:49;4.77;;;4.07;;
261;SDS011;114;48.260;10.988;2023-06-04T04:43:27;5.43;;;4.27;;
261;SDS011;114;48.260;10.988;2023-06-04T04:45:54;6.97;;;4.50;;
261;SDS011;114;48.260;10.988;2023-06-04T04:48:20;7.80;;;4.43;;
261;SDS011;114;48.260;10.988;2023-06-04T04:50:45;3.90;;;3.20;;
261;SDS011;114;48.260;10.988;2023-06-04T04:53:11;4.13;;;3.83;;
261;SDS011;114;48.260;10.988;2023-06-04T04:55:37;8.03;;;4.30;;
261;SDS011;114;48.260;10.988;2023-06-04T04:58:02;6.23;;;3.70;;
261;SDS011;114;48.260;10.988;2023-06-04T05:00:28;10.70;;;4.07;;
261;SDS011;114;48.260;10.988;2023-06-04T05:02:55;10.93;;;3.90;;
261;SDS011;114;48.260;10.988;2023-06-04T05:05:21;5.47;;;4.33;;
261;SDS011;114;48.260;10.988;2023-06-04T05:07:47;4.77;;;4.27;;
261;SDS011;114;48.260;10.988;2023-06-04T05:10:12;4.50;;;4.17;;
261;SDS011;114;48.260;10.988;2023-06-04T05:12:38;8.03;;;5.10;;
261;SDS011;114;48.260;10.988;2023-06-04T05:15:04;7.00;;;4.37;;
261;SDS011;114;48.260;10.988;2023-06-04T05:17:30;11.30;;;4.20;;
261;SDS011;114;48.260;10.988;2023-06-04T05:19:56;13.03;;;4.87;;
261;SDS011;114;48.260;10.988;2023-06-04T05:22:37;7.33;;;4.30;;
261;SDS011;114;48.260;10.988;2023-06-04T05:25:03;11.93;;;4.27;;
261;SDS011;114;48.260;10.988;2023-06-04T05:27:29;4.00;;;3.40;;
261;SDS011;114;48.260;10.988;2023-06-04T05:29:56;4.40;;;4.10;;
261;SDS011;114;48.260;10.988;2023-06-04T05:32:22;3.47;;;3.27;;
261;SDS011;114;48.260;10.988;2023-06-04T05:34:48;5.23;;;4.33;;
261;SDS011;114;48.260;10.988;2023-06-04T05:37:14;4.00;;;3.70;;
261;SDS011;114;48.260;10.988;2023-06-04T05:39:43;24.73;;;4.13;;
261;SDS011;114;48.260;10.988;2023-06-04T05:42:08;3.83;;;3.40;;
261;SDS011;114;48.260;10.988;2023-06-04T05:44:34;5.80;;;3.80;;
261;SDS011;114;48.260;10.988;2023-06-04T05:47:00;4.03;;;3.77;;
261;SDS011;114;48.260;10.988;2023-06-04T05:49:26;5.90;;;3.80;;
261;SDS011;114;48.260;10.988;2023-06-04T05:51:52;4.60;;;3.30;;
261;SDS011;114;48.260;10.988;2023-06-04T05:54:17;5.27;;;3.53;;
261;SDS011;114;48.260;10.988;2023-06-04T05:56:43;23.30;;;5.60;;
261;SDS011;114;48.260;10.988;2023-06-04T05:59:09;7.77;;;3.53;;
261;SDS011;114;48.260;10.988;2023-06-04T06:01:35;3.77;;;3.47;;
261;SDS011;114;48.260;10.988;2023-06-04T06:04:01;3.93;;;3.20;;
261;SDS011;114;48.260;10.988;2023-06-04T06:06:27;5.10;;;4.50;;
261;SDS011;114;48.260;10.988;2023-06-04T06:08:53;3.67;;;3.37;;
261;SDS011;114;48.260;10.988;2023-06-04T06:11:19;4.00;;;3.53;;
261;SDS011;114;48.260;10.988;2023-06-04T06:13:46;4.43;;;3.70;;
261;SDS011;114;48.260;10.988;2023-06-04T06:16:12;4.17;;;3.37;;
261;SDS011;114;48.260;10.988;2023-06-04T06:18:38;3.53;;;3.23;;
261;SDS011;114;48.260;10.988;2023-06-04T06:21:03;9.43;;;3.67;;
261;SDS011;114;48.260;10.988;2023-06-04T06:23:29;8.00;;;3.50;;
261;SDS011;114;48.260;10.988;2023-06-04T06:25:55;7.30;;;3.40;;
261;SDS011;114;48.260;10.988;2023-06-04T06:28:20;3.83;;;3.27;;
261;SDS011;114;48.260;10.988;2023-06-04T06:30:46;9.20;;;2.70;;
261;SDS011;114;48.260;10.988;2023-06-04T06:33:12;5.47;;;3.43;;
261;SDS011;114;48.260;10.988;2023-06-04T06:35:38;5.40;;;3.80;;
261;SDS011;114;48.260;10.988;2023-06-04T06:38:04;3.20;;;3.00;;
261;SDS011;114;48.260;10.988;2023-06-04T06:40:30;8.27;;;3.83;;
261;SDS011;114;48.260;10.988;2023-06-04T06:42:56;6.40;;;3.10;;
261;SDS011;114;48.260;10.988;2023-06-04T06:45:21;7.60;;;3.10;;
261;SDS011;114;48.260;10.988;2023-06-04T06:47:47;5.00;;;3.27;;
261;SDS011;114;48.260;10.988;2023-06-04T06:50:13;4.37;;;3.50;;
261;SDS011;114;48.260;10.988;2023-06-04T06:52:39;5.40;;;3.13;;
261;SDS011;114;48.260;10.988;2023-06-04T06:55:05;9.20;;;3.40;;
261;SDS011;114;48.260;10.988;2023-06-04T06:57:31;12.03;;;3.80;;
261;SDS011;114;48.260;10.988;2023-06-04T06:59:58;11.23;;;4.03;;
261;SDS011;114;48.260;10.988;2023-06-04T07:02:24;3.97;;;3.50;;
261;SDS011;114;48.260;10.988;2023-06-04T07:04:50;4.17;;;3.80;;
261;SDS011;114;48.260;10.988;2023-06-04T07:07:16;5.50;;;3.40;;
261;SDS011;114;48.260;10.988;2023-06-04T07:09:42;6.00;;;2.70;;
261;SDS011;114;48.260;10.988;2023-06-04T07:12:07;3.93;;;3.33;;
261;SDS011;114;48.260;10.988;2023-06-04T07:14:33;4.57;;;2.77;;
261;SDS011;114;48.260;10.988;2023-06-04T07:16:59;12.03;;;4.10;;
261;SDS011;114;48.260;10.988;2023-06-04T07:19:25;5.50;;;3.10;;
261;SDS011;114;48.260;10.988;2023-06-04T07:21:53;5.20;;;3.37;;
261;SDS011;114;48.260;10.988;2023-06-04T07:24:20;4.53;;;3.50;;
261;SDS011;114;48.260;10.988;2023-06-04T07:26:46;9.67;;;3.30;;
261;SDS011;114;48.260;10.988;2023-06-04T07:29:13;9.43;;;3.40;;
261;SDS011;114;48.260;10.988;2023-06-04T07:31:38;3.67;;;3.20;;
261;SDS011;114;48.260;10.988;2023-06-04T07:34:04;3.60;;;3.30;;
261;SDS011;114;48.260;10.988;2023-06-04T07:36:30;6.63;;;3.70;;
261;SDS011;114;48.260;10.988;2023-06-04T07:38:56;7.27;;;2.90;;
261;SDS011;114;48.260;10.988;2023-06-04T07:41:22;3.60;;;2.97;;
261;SDS011;114;48.260;10.988;2023-06-04T07:43:48;11.93;;;3.50;;
261;SDS011;114;48.260;10.988;2023-06-04T07:46:13;2.93;;;2.73;;
261;SDS011;114;48.260;10.988;2023-06-04T07:48:43;3.30;;;2.73;;
261;SDS011;114;48.260;10.988;2023-06-04T07:51:10;3.87;;;3.20;;
261;SDS011;114;48.260;10.988;2023-06-04T07:53:37;3.33;;;2.73;;
261;SDS011;114;48.260;10.988;2023-06-04T07:56:03;12.80;;;2.70;;
261;SDS011;114;48.260;10.988;2023-06-04T07:58:29;3.87;;;3.47;;
261;SDS011;114;48.260;10.988;2023-06-04T08:00:55;2.87;;;2.67;;
261;SDS011;114;48.260;10.988;2023-06-04T08:03:21;4.60;;;3.63;;
261;SDS011;114;48.260;10.988;2023-06-04T08:05:47;8.43;;;2.73;;
261;SDS011;114;48.260;10.988;2023-06-04T08:08:13;3.07;;;2.77;;
261;SDS011;114;48.260;10.988;2023-06-04T08:10:41;6.37;;;3.00;;
261;SDS011;114;48.260;10.988;2023-06-04T08:13:07;4.83;;;3.10;;
261;SDS011;114;48.260;10.988;2023-06-04T08:15:34;6.30;;;3.57;;
261;SDS011;114;48.260;10.988;2023-06-04T08:18:00;6.13;;;3.17;;
261;SDS011;114;48.260;10.988;2023-06-04T08:20:26;3.87;;;2.47;;
261;SDS011;114;48.260;10.988;2023-06-04T08:22:52;7.80;;;3.03;;
261;SDS011;114;48.260;10.988;2023-06-04T08:25:17;5.00;;;3.67;;
261;SDS011;114;48.260;10.988;2023-06-04T08:27:43;8.80;;;2.63;;
261;SDS011;114;48.260;10.988;2023-06-04T08:30:09;4.30;;;2.53;;
261;SDS011;114;48.260;10.988;2023-06-04T08:32:35;11.20;;;3.13;;
261;SDS011;114;48.260;10.988;2023-06-04T08:35:01;2.80;;;2.60;;
261;SDS011;114;48.260;10.988;2023-06-04T08:37:26;4.80;;;3.20;;
261;SDS011;114;48.260;10.988;2023-06-04T08:39:53;4.90;;;3.30;;
261;SDS011;114;48.260;10.988;2023-06-04T08:42:22;5.03;;;2.70;;
261;SDS011;114;48.260;10.988;2023-06-04T08:44:54;13.30;;;2.60;;
261;SDS011;114;48.260;10.988;2023-06-04T08:47:23;2.77;;;2.57;;
261;SDS011;114;48.260;10.988;2023-06-04T08:49:53;11.70;;;2.33;;
261;SDS011;114;48.260;10.988;2023-06-04T08:52:23;2.87;;;2.40;;
261;SDS011;114;48.260;10.988;2023-06-04T08:54:51;4.60;;;3.13;;
261;SDS011;114;48.260;10.988;2023-06-04T08:57:20;3.50;;;3.10;;
261;SDS011;114;48.260;10.988;2023-06-04T08:59:46;4.80;;;2.17;;
261;SDS011;114;48.260;10.988;2023-06-04T09:02:13;3.40;;;2.63;;
261;SDS011;114;48.260;10.988;2023-06-04T09:04:39;7.90;;;2.83;;
261;SDS011;114;48.260;10.988;2023-06-04T09:07:05;3.90;;;2.40;;
261;SDS011;114;48.260;10.988;2023-06-04T09:09:35;10.53;;;2.80;;
261;SDS011;114;48.260;10.988;2023-06-04T09:12:03;4.87;;;2.60;;
261;SDS011;114;48.260;10.988;2023-06-04T09:14:33;2.83;;;2.63;;
261;SDS011;114;48.260;10.988;2023-06-04T09:16:59;5.83;;;2.57;;
261;SDS011;114;48.260;10.988;2023-06-04T09:19:25;4.50;;;2.80;;
261;SDS011;114;48.260;10.988;2023-06-04T09:21:52;6.93;;;2.60;;
261;SDS011;114;48.260;10.988;2023-06-04T09:24:20;5.17;;;2.60;;
261;SDS011;114;48.260;10.988;2023-06-04T09:26:47;12.10;;;2.90;;
261;SDS011;114;48.260;10.988;2023-06-04T09:29:14;5.23;;;2.50;;
261;SDS011;114;48.260;10.988;2023-06-04T09:31:41;2.67;;;2.47;;
261;SDS011;114;48.260;10.988;2023-06-04T09:34:09;5.23;;;2.80;;
261;SDS011;114;48.260;10.988;2023-06-04T09:36:35;5.73;;;2.60;;
261;SDS011;114;48.260;10.988;2023-06-04T09:39:14;4.67;;;2.30;;
261;SDS011;114;48.260;10.988;2023-06-04T09:41:43;3.37;;;2.93;;
261;SDS011;114;48.260;10.988;2023-06-04T09:44:09;6.50;;;2.37;;
261;SDS011;114;48.260;10.988;2023-06-04T09:46:37;9.70;;;2.57;;
261;SDS011;114;48.260;10.988;2023-06-04T09:49:03;10.23;;;5.20;;
261;SDS011;114;48.260;10.988;2023-06-04T09:51:30;5.43;;;3.00;;
261;SDS011;114;48.260;10.988;2023-06-04T09:53:59;3.27;;;2.97;;
261;SDS011;114;48.260;10.988;2023-06-04T09:56:27;2.97;;;2.40;;
261;SDS011;114;48.260;10.988;2023-06-04T09:58:54;6.97;;;4.10;;
261;SDS011;114;48.260;10.988;2023-06-04T10:01:26;11.73;;;3.93;;
261;SDS011;114;48.260;10.988;2023-06-04T10:03:53;13.90;;;8.77;;
261;SDS011;114;48.260;10.988;2023-06-04T10:06:21;4.43;;;2.87;;
261;SDS011;114;48.260;10.988;2023-06-04T10:08:48;4.03;;;2.47;;
261;SDS011;114;48.260;10.988;2023-06-04T10:11:17;3.60;;;2.80;;
261;SDS011;114;48.260;10.988;2023-06-04T10:13:55;7.97;;;3.70;;
261;SDS011;114;48.260;10.988;2023-06-04T10:16:27;3.57;;;3.27;;
261;SDS011;114;48.260;10.988;2023-06-04T10:18:55;4.73;;;3.50;;
261;SDS011;114;48.260;10.988;2023-06-04T10:21:23;4.03;;;3.43;;
261;SDS011;114;48.260;10.988;2023-06-04T10:23:51;3.73;;;3.43;;
261;SDS011;114;48.260;10.988;2023-06-04T10:26:16;8.57;;;5.87;;
261;SDS011;114;48.260;10.988;2023-06-04T10:28:43;4.40;;;3.67;;
261;SDS011;114;48.260;10.988;2023-06-04T10:31:09;3.83;;;3.20;;
261;SDS011;114;48.260;10.988;2023-06-04T10:33:35;4.70;;;3.80;;
261;SDS011;114;48.260;10.988;2023-06-04T10:36:14;8.20;;;3.13;;
261;SDS011;114;48.260;10.988;2023-06-04T10:38:49;4.80;;;3.73;;
261;SDS011;114;48.260;10.988;2023-06-04T10:41:17;5.33;;;3.57;;
261;SDS011;114;48.260;10.988;2023-06-04T10:43:44;7.93;;;4.03;;
261;SDS011;114;48.260;10.988;2023-06-04T10:46:12;6.63;;;2.97;;
261;SDS011;114;48.260;10.988;2023-06-04T10:48:45;5.00;;;2.97;;
261;SDS011;114;48.260;10.988;2023-06-04T10:51:12;3.33;;;3.03;;
261;SDS011;114;48.260;10.988;2023-06-04T10:53:37;8.23;;;3.10;;
261;SDS011;114;48.260;10.988;2023-06-04T10:56:03;4.83;;;3.40;;
261;SDS011;114;48.260;10.988;2023-06-04T10:58:33;7.27;;;3.57;;
261;SDS011;114;48.260;10.988;2023-06-04T11:01:00;3.97;;;3.53;;
261;SDS011;114;48.260;10.988;2023-06-04T11:03:37;7.43;;;3.40;;
261;SDS011;114;48.260;10.988;2023-06-04T11:06:14;3.80;;;3.47;;
261;SDS011;114;48.260;10.988;2023-06-04T11:08:41;6.70;;;3.30;;
261;SDS011;114;48.260;10.988;2023-06-04T11:11:11;6.27;;;3.63;;
261;SDS011;114;48.260;10.988;2023-06-04T11:13:38;3.43;;;3.13;;
261;SDS011;114;48.260;10.988;2023-06-04T11:16:14;3.00;;;2.53;;
261;SDS011;114;48.260;10.988;2023-06-04T11:18:53;7.23;;;3.20;;
261;SDS011;114;48.260;10.988;2023-06-04T11:21:20;11.70;;;3.63;;
261;SDS011;114;48.260;10.988;2023-06-04T11:23:46;3.30;;;3.10;;
261;SDS011;114;48.260;10.988;2023-06-04T11:26:12;5.90;;;2.97;;
261;SDS011;114;48.260;10.988;2023-06-04T11:28:38;2.90;;;2.70;;
261;SDS011;114;48.260;10.988;2023-06-04T11:31:05;8.80;;;3.33;;
261;SDS011;114;48.260;10.988;2023-06-04T11:33:46;3.40;;;3.10;;
261;SDS011;114;48.260;10.988;2023-06-04T11:36:22;3.43;;;3.13;;
261;SDS011;114;48.260;10.988;2023-06-04T11:39:08;5.80;;;3.07;;
261;SDS011;114;48.260;10.988;2023-06-04T11:41:35;8.17;;;3.33;;
261;SDS011;114;48.260;10.988;2023-06-04T11:44:02;10.77;;;3.80;;
261;SDS011;114;48.260;10.988;2023-06-04T11:46:32;4.30;;;2.73;;
261;SDS011;114;48.260;10.988;2023-06-04T11:48:58;11.93;;;3.43;;
261;SDS011;114;48.260;10.988;2023-06-04T11:51:25;4.07;;;3.10;;
261;SDS011;114;48.260;10.988;2023-06-04T11:53:51;4.47;;;2.70;;
261;SDS011;114;48.260;10.988;2023-06-04T11:56:17;3.33;;;3.03;;
261;SDS011;114;48.260;10.988;2023-06-04T11:58:43;3.05;;;2.85;;
261;SDS011;114;48.260;10.988;2023-06-04T12:01:11;5.25;;;3.40;;
261;SDS011;114;48.260;10.988;2023-06-04T12:03:41;6.07;;;3.03;;
261;SDS011;114;48.260;10.988;2023-06-04T12:06:18;4.30;;;2.78;;
261;SDS011;114;48.260;10.988;2023-06-04T12:11:24;3.25;;;2.90;;
261;SDS011;114;48.260;10.988;2023-06-04T12:13:52;9.88;;;2.80;;
261;SDS011;114;48.260;10.988;2023-06-04T12:16:19;6.65;;;3.53;;
261;SDS011;114;48.260;10.988;2023-06-04T12:18:45;4.55;;;3.00;;
261;SDS011;114;48.260;10.988;2023-06-04T12:21:17;3.08;;;2.78;;
261;SDS011;114;48.260;10.988;2023-06-04T12:23:47;5.32;;;2.80;;
261;SDS011;114;48.260;10.988;2023-06-04T12:26:22;3.55;;;2.83;;
261;SDS011;114;48.260;10.988;2023-06-04T12:29:00;8.02;;;2.60;;
261;SDS011;114;48.260;10.988;2023-06-04T12:31:26;3.17;;;2.85;;
261;SDS011;114;48.260;10.988;2023-06-04T12:33:57;3.45;;;3.15;;
261;SDS011;114;48.260;10.988;2023-06-04T12:36:23;5.25;;;2.88;;
261;SDS011;114;48.260;10.988;2023-06-04T12:38:49;4.70;;;2.88;;
261;SDS011;114;48.260;10.988;2023-06-04T12:41:15;2.70;;;2.50;;
261;SDS011;114;48.260;10.988;2023-06-04T12:43:41;2.83;;;2.63;;
261;SDS011;114;48.260;10.988;2023-06-04T12:46:06;3.95;;;2.80;;
261;SDS011;114;48.260;10.988;2023-06-04T12:48:32;3.38;;;2.50;;
261;SDS011;114;48.260;10.988;2023-06-04T12:50:58;7.72;;;2.70;;
261;SDS011;114;48.260;10.988;2023-06-04T12:53:24;2.97;;;2.50;;
261;SDS011;114;48.260;10.988;2023-06-04T12:55:49;3.95;;;2.45;;
261;SDS011;114;48.260;10.988;2023-06-04T12:58:15;4.10;;;2.28;;
261;SDS011;114;48.260;10.988;2023-06-04T13:00:42;3.03;;;2.65;;
261;SDS011;114;48.260;10.988;2023-06-04T13:03:08;3.75;;;2.65;;
261;SDS011;114;48.260;10.988;2023-06-04T13:05:33;3.75;;;2.40;;
261;SDS011;114;48.260;10.988;2023-06-04T13:08:00;3.60;;;2.88;;
261;SDS011;114;48.260;10.988;2023-06-04T13:10:27;4.30;;;3.10;;
261;SDS011;114;48.260;10.988;2023-06-04T13:12:52;3.25;;;2.38;;
261;SDS011;114;48.260;10.988;2023-06-04T13:15:18;2.88;;;2.40;;
261;SDS011;114;48.260;10.988;2023-06-04T13:17:44;4.30;;;2.60;;
261;SDS011;114;48.260;10.988;2023-06-04T13:20:10;3.35;;;2.45;;
261;SDS011;114;48.260;10.988;2023-06-04T13:22:36;3.00;;;2.58;;
261;SDS011;114;48.260;10.988;2023-06-04T13:25:02;5.90;;;2.80;;
261;SDS011;114;48.260;10.988;2023-06-04T13:27:28;2.47;;;2.38;;
261;SDS011;114;48.260;10.988;2023-06-04T13:29:54;2.60;;;2.40;;
261;SDS011;114;48.260;10.988;2023-06-04T13:32:19;3.15;;;2.95;;
261;SDS011;114;48.260;10.988;2023-06-04T13:34:45;2.90;;;2.70;;
261;SDS011;114;48.260;10.988;2023-06-04T13:37:11;2.50;;;2.40;;
261;SDS011;114;48.260;10.988;2023-06-04T13:39:37;5.05;;;2.70;;
261;SDS011;114;48.260;10.988;2023-06-04T13:42:03;3.10;;;2.42;;
261;SDS011;114;48.260;10.988;2023-06-04T13:44:29;5.45;;;2.40;;
261;SDS011;114;48.260;10.988;2023-06-04T13:46:57;3.10;;;2.90;;
261;SDS011;114;48.260;10.988;2023-06-04T13:49:23;12.65;;;3.00;;
261;SDS011;114;48.260;10.988;2023-06-04T13:51:50;3.00;;;2.80;;
261;SDS011;114;48.260;10.988;2023-06-04T13:54:15;9.30;;;3.15;;
261;SDS011;114;48.260;10.988;2023-06-04T13:56:41;6.15;;;3.15;;
261;SDS011;114;48.260;10.988;2023-06-04T13:59:08;3.78;;;3.25;;
261;SDS011;114;48.260;10.988;2023-06-04T14:01:34;2.90;;;2.70;;
261;SDS011;114;48.260;10.988;2023-06-04T14:04:00;5.50;;;2.90;;
261;SDS011;114;48.260;10.988;2023-06-04T14:06:25;4.97;;;2.58;;
261;SDS011;114;48.260;10.988;2023-06-04T14:08:51;5.10;;;2.25;;
261;SDS011;114;48.260;10.988;2023-06-04T14:11:17;8.38;;;2.85;;
261;SDS011;114;48.260;10.988;2023-06-04T14:13:43;4.80;;;3.60;;
261;SDS011;114;48.260;10.988;2023-06-04T14:16:10;3.42;;;3.03;;
261;SDS011;114;48.260;10.988;2023-06-04T14:18:35;12.55;;;3.22;;
261;SDS011;114;48.260;10.988;2023-06-04T14:21:02;2.90;;;2.70;;
261;SDS011;114;48.260;10.988;2023-06-04T14:23:28;5.83;;;3.17;;
261;SDS011;114;48.260;10.988;2023-06-04T14:25:53;3.20;;;2.90;;
261;SDS011;114;48.260;10.988;2023-06-04T14:28:19;4.50;;;2.80;;
261;SDS011;114;48.260;10.988;2023-06-04T14:30:45;3.10;;;2.80;;
261;SDS011;114;48.260;10.988;2023-06-04T14:33:11;2.87;;;2.67;;
261;SDS011;114;48.260;10.988;2023-06-04T14:35:37;6.10;;;3.27;;
261;SDS011;114;48.260;10.988;2023-06-04T14:38:04;3.43;;;3.13;;
261;SDS011;114;48.260;10.988;2023-06-04T14:40:30;9.27;;;3.90;;
261;SDS011;114;48.260;10.988;2023-06-04T14:42:55;6.33;;;3.83;;
261;SDS011;114;48.260;10.988;2023-06-04T14:45:22;6.73;;;2.63;;
261;SDS011;114;48.260;10.988;2023-06-04T14:47:48;3.03;;;2.80;;
261;SDS011;114;48.260;10.988;2023-06-04T14:50:16;3.53;;;3.23;;
261;SDS011;114;48.260;10.988;2023-06-04T14:52:43;38.93;;;3.10;;
261;SDS011;114;48.260;10.988;2023-06-04T14:55:09;3.70;;;3.40;;
261;SDS011;114;48.260;10.988;2023-06-04T14:57:35;3.93;;;3.37;;
261;SDS011;114;48.260;10.988;2023-06-04T15:00:01;5.37;;;3.20;;
261;SDS011;114;48.260;10.988;2023-06-04T15:02:27;7.60;;;3.33;;
261;SDS011;114;48.260;10.988;2023-06-04T15:04:54;3.83;;;3.07;;
261;SDS011;114;48.260;10.988;2023-06-04T15:07:21;2.73;;;2.53;;
261;SDS011;114;48.260;10.988;2023-06-04T15:09:47;8.23;;;3.05;;
261;SDS011;114;48.260;10.988;2023-06-04T15:12:14;3.85;;;2.63;;
261;SDS011;114;48.260;10.988;2023-06-04T15:14:41;8.55;;;2.70;;
261;SDS011;114;48.260;10.988;2023-06-04T15:17:07;6.93;;;3.00;;
261;SDS011;114;48.260;10.988;2023-06-04T15:19:34;5.38;;;2.92;;
261;SDS011;114;48.260;10.988;2023-06-04T15:22:00;3.60;;;2.67;;
261;SDS011;114;48.260;10.988;2023-06-04T15:24:25;2.30;;;2.17;;
261;SDS011;114;48.260;10.988;2023-06-04T15:26:51;2.53;;;2.33;;
261;SDS011;114;48.260;10.988;2023-06-04T15:29:17;9.32;;;2.92;;
261;SDS011;114;48.260;10.988;2023-06-04T15:31:43;4.63;;;2.35;;
261;SDS011;114;48.260;10.988;2023-06-04T15:34:08;5.25;;;2.63;;
261;SDS011;114;48.260;10.988;2023-06-04T15:36:34;10.55;;;2.90;;